sensor_id;sensor_type;location;lat;lon;timestamp;P1;durP1;ratioP1;P2;durP2;ratioP2
56667;SDS011;42542;48.360;10.958;2023-05-29T00:01:07;14.40;;;5.37;;
56667;SDS011;42542;48.360;10.958;2023-05-29T00:04:10;14.65;;;5.43;;
56667;SDS011;42542;48.360;10.958;2023-05-29T00:07:14;14.50;;;5.55;;
56667;SDS011;42542;48.360;10.958;2023-05-29T00:10:17;14.25;;;6.03;;
56667;SDS011;42542;48.360;10.958;2023-05-29T00:13:20;14.47;;;5.40;;
56667;SDS011;42542;48.360;10.958;2023-05-29T00:16:22;13.82;;;5.68;;
56667;SDS011;42542;48.360;10.958;2023-05-29T00:19:25;14.80;;;5.93;;
56667;SDS011;42542;48.360;10.958;2023-05-29T00:22:27;16.40;;;6.32;;
56667;SDS011;42542;48.360;10.958;2023-05-29T00:25:29;15.60;;;5.90;;
56667;SDS011;42542;48.360;10.958;2023-05-29T00:28:31;14.90;;;5.82;;
56667;SDS011;42542;48.360;10.958;2023-05-29T00:31:33;14.88;;;6.22;;
56667;SDS011;42542;48.360;10.958;2023-05-29T00:34:35;14.18;;;6.00;;
56667;SDS011;42542;48.360;10.958;2023-05-29T00:37:39;15.67;;;6.17;;
56667;SDS011;42542;48.360;10.958;2023-05-29T00:40:41;13.05;;;5.65;;
56667;SDS011;42542;48.360;10.958;2023-05-29T00:43:43;14.98;;;6.07;;
56667;SDS011;42542;48.360;10.958;2023-05-29T00:46:45;13.32;;;5.57;;
56667;SDS011;42542;48.360;10.958;2023-05-29T00:49:48;14.40;;;5.87;;
56667;SDS011;42542;48.360;10.958;2023-05-29T00:52:52;15.20;;;6.15;;
56667;SDS011;42542;48.360;10.958;2023-05-29T00:55:55;13.40;;;5.90;;
56667;SDS011;42542;48.360;10.958;2023-05-29T00:58:57;13.77;;;5.63;;
56667;SDS011;42542;48.360;10.958;2023-05-29T01:02:00;16.70;;;6.45;;
56667;SDS011;42542;48.360;10.958;2023-05-29T01:05:04;14.90;;;6.18;;
56667;SDS011;42542;48.360;10.958;2023-05-29T01:08:07;14.50;;;6.22;;
56667;SDS011;42542;48.360;10.958;2023-05-29T01:22:12;15.02;;;6.20;;
56667;SDS011;42542;48.360;10.958;2023-05-29T01:25:24;15.67;;;6.30;;
56667;SDS011;42542;48.360;10.958;2023-05-29T01:28:44;17.13;;;6.45;;
56667;SDS011;42542;48.360;10.958;2023-05-29T01:31:50;16.30;;;6.30;;
56667;SDS011;42542;48.360;10.958;2023-05-29T01:34:54;16.40;;;6.80;;
56667;SDS011;42542;48.360;10.958;2023-05-29T01:37:56;16.73;;;7.03;;
56667;SDS011;42542;48.360;10.958;2023-05-29T01:40:58;15.73;;;6.32;;
56667;SDS011;42542;48.360;10.958;2023-05-29T01:44:03;16.25;;;6.45;;
56667;SDS011;42542;48.360;10.958;2023-05-29T01:47:10;15.47;;;6.40;;
56667;SDS011;42542;48.360;10.958;2023-05-29T01:50:11;15.00;;;6.15;;
56667;SDS011;42542;48.360;10.958;2023-05-29T01:53:16;16.23;;;6.13;;
56667;SDS011;42542;48.360;10.958;2023-05-29T01:56:18;16.20;;;6.13;;
56667;SDS011;42542;48.360;10.958;2023-05-29T01:59:21;15.10;;;6.40;;
56667;SDS011;42542;48.360;10.958;2023-05-29T02:02:24;14.02;;;6.38;;
56667;SDS011;42542;48.360;10.958;2023-05-29T02:05:27;16.05;;;6.30;;
56667;SDS011;42542;48.360;10.958;2023-05-29T02:08:29;13.60;;;5.93;;
56667;SDS011;42542;48.360;10.958;2023-05-29T02:11:31;14.20;;;5.90;;
56667;SDS011;42542;48.360;10.958;2023-05-29T02:14:33;15.93;;;6.47;;
56667;SDS011;42542;48.360;10.958;2023-05-29T02:17:35;18.00;;;6.93;;
56667;SDS011;42542;48.360;10.958;2023-05-29T02:20:38;15.65;;;6.65;;
56667;SDS011;42542;48.360;10.958;2023-05-29T02:23:40;17.27;;;6.03;;
56667;SDS011;42542;48.360;10.958;2023-05-29T02:26:42;14.30;;;5.60;;
56667;SDS011;42542;48.360;10.958;2023-05-29T02:29:44;14.13;;;5.57;;
56667;SDS011;42542;48.360;10.958;2023-05-29T02:32:46;13.65;;;5.90;;
56667;SDS011;42542;48.360;10.958;2023-05-29T02:35:49;13.23;;;5.70;;
56667;SDS011;42542;48.360;10.958;2023-05-29T02:38:50;13.33;;;5.00;;
56667;SDS011;42542;48.360;10.958;2023-05-29T02:41:52;13.13;;;5.20;;
56667;SDS011;42542;48.360;10.958;2023-05-29T02:44:55;15.35;;;5.60;;
56667;SDS011;42542;48.360;10.958;2023-05-29T02:47:58;14.13;;;6.10;;
56667;SDS011;42542;48.360;10.958;2023-05-29T02:51:00;12.55;;;5.32;;
56667;SDS011;42542;48.360;10.958;2023-05-29T02:54:02;16.02;;;5.63;;
56667;SDS011;42542;48.360;10.958;2023-05-29T02:57:04;15.13;;;5.32;;
56667;SDS011;42542;48.360;10.958;2023-05-29T03:00:07;10.75;;;4.75;;
56667;SDS011;42542;48.360;10.958;2023-05-29T03:03:09;11.82;;;5.22;;
56667;SDS011;42542;48.360;10.958;2023-05-29T03:06:13;12.68;;;5.20;;
56667;SDS011;42542;48.360;10.958;2023-05-29T03:09:17;12.33;;;5.07;;
56667;SDS011;42542;48.360;10.958;2023-05-29T03:12:20;14.55;;;5.10;;
56667;SDS011;42542;48.360;10.958;2023-05-29T03:15:22;11.50;;;4.90;;
56667;SDS011;42542;48.360;10.958;2023-05-29T03:18:26;14.23;;;5.23;;
56667;SDS011;42542;48.360;10.958;2023-05-29T03:21:28;11.00;;;5.05;;
56667;SDS011;42542;48.360;10.958;2023-05-29T03:24:30;12.48;;;4.80;;
56667;SDS011;42542;48.360;10.958;2023-05-29T03:27:32;13.27;;;5.15;;
56667;SDS011;42542;48.360;10.958;2023-05-29T03:30:46;11.88;;;4.40;;
56667;SDS011;42542;48.360;10.958;2023-05-29T03:33:51;12.32;;;4.82;;
56667;SDS011;42542;48.360;10.958;2023-05-29T03:36:56;12.73;;;4.68;;
56667;SDS011;42542;48.360;10.958;2023-05-29T03:40:01;11.20;;;4.80;;
56667;SDS011;42542;48.360;10.958;2023-05-29T03:43:03;13.52;;;4.82;;
56667;SDS011;42542;48.360;10.958;2023-05-29T03:46:05;11.93;;;4.70;;
56667;SDS011;42542;48.360;10.958;2023-05-29T03:49:09;10.97;;;4.33;;
56667;SDS011;42542;48.360;10.958;2023-05-29T03:52:12;13.48;;;4.63;;
56667;SDS011;42542;48.360;10.958;2023-05-29T03:55:14;12.48;;;4.60;;
56667;SDS011;42542;48.360;10.958;2023-05-29T03:58:18;10.23;;;4.60;;
56667;SDS011;42542;48.360;10.958;2023-05-29T04:01:21;13.63;;;4.95;;
56667;SDS011;42542;48.360;10.958;2023-05-29T04:04:23;12.15;;;4.57;;
56667;SDS011;42542;48.360;10.958;2023-05-29T04:07:26;13.57;;;5.00;;
56667;SDS011;42542;48.360;10.958;2023-05-29T04:10:28;14.00;;;4.67;;
56667;SDS011;42542;48.360;10.958;2023-05-29T04:13:30;12.77;;;4.95;;
56667;SDS011;42542;48.360;10.958;2023-05-29T04:16:32;10.60;;;4.68;;
56667;SDS011;42542;48.360;10.958;2023-05-29T04:19:34;12.57;;;4.60;;
56667;SDS011;42542;48.360;10.958;2023-05-29T04:22:37;10.65;;;4.68;;
56667;SDS011;42542;48.360;10.958;2023-05-29T04:25:40;12.63;;;4.82;;
56667;SDS011;42542;48.360;10.958;2023-05-29T04:28:42;10.98;;;4.85;;
56667;SDS011;42542;48.360;10.958;2023-05-29T04:31:46;12.20;;;4.68;;
56667;SDS011;42542;48.360;10.958;2023-05-29T04:34:49;14.05;;;4.80;;
56667;SDS011;42542;48.360;10.958;2023-05-29T04:37:52;12.13;;;4.70;;
56667;SDS011;42542;48.360;10.958;2023-05-29T04:40:55;13.40;;;4.73;;
56667;SDS011;42542;48.360;10.958;2023-05-29T04:44:02;13.18;;;4.90;;
56667;SDS011;42542;48.360;10.958;2023-05-29T04:47:13;12.07;;;5.40;;
56667;SDS011;42542;48.360;10.958;2023-05-29T04:50:17;11.98;;;4.72;;
56667;SDS011;42542;48.360;10.958;2023-05-29T04:53:19;12.52;;;4.65;;
56667;SDS011;42542;48.360;10.958;2023-05-29T04:56:22;13.98;;;4.68;;
56667;SDS011;42542;48.360;10.958;2023-05-29T04:59:24;12.80;;;5.10;;
56667;SDS011;42542;48.360;10.958;2023-05-29T05:02:28;11.73;;;4.60;;
56667;SDS011;42542;48.360;10.958;2023-05-29T05:05:30;12.02;;;4.68;;
56667;SDS011;42542;48.360;10.958;2023-05-29T05:08:34;12.55;;;4.88;;
56667;SDS011;42542;48.360;10.958;2023-05-29T05:11:37;12.57;;;4.65;;
56667;SDS011;42542;48.360;10.958;2023-05-29T05:14:40;12.07;;;4.50;;
56667;SDS011;42542;48.360;10.958;2023-05-29T05:17:43;11.55;;;4.57;;
56667;SDS011;42542;48.360;10.958;2023-05-29T05:20:47;12.65;;;4.93;;
56667;SDS011;42542;48.360;10.958;2023-05-29T05:23:49;12.37;;;4.90;;
56667;SDS011;42542;48.360;10.958;2023-05-29T05:27:02;13.00;;;4.82;;
56667;SDS011;42542;48.360;10.958;2023-05-29T05:30:09;13.85;;;4.90;;
56667;SDS011;42542;48.360;10.958;2023-05-29T05:33:11;12.30;;;5.00;;
56667;SDS011;42542;48.360;10.958;2023-05-29T05:36:13;11.80;;;5.10;;
56667;SDS011;42542;48.360;10.958;2023-05-29T05:39:16;15.25;;;4.70;;
56667;SDS011;42542;48.360;10.958;2023-05-29T05:42:21;11.85;;;4.78;;
56667;SDS011;42542;48.360;10.958;2023-05-29T05:45:28;11.10;;;4.70;;
56667;SDS011;42542;48.360;10.958;2023-05-29T05:48:30;11.80;;;4.65;;
56667;SDS011;42542;48.360;10.958;2023-05-29T05:51:32;13.15;;;4.70;;
56667;SDS011;42542;48.360;10.958;2023-05-29T05:54:35;10.27;;;4.22;;
56667;SDS011;42542;48.360;10.958;2023-05-29T05:57:37;13.97;;;4.83;;
56667;SDS011;42542;48.360;10.958;2023-05-29T06:00:41;10.18;;;4.40;;
56667;SDS011;42542;48.360;10.958;2023-05-29T06:03:44;12.05;;;4.45;;
56667;SDS011;42542;48.360;10.958;2023-05-29T06:06:47;11.63;;;4.40;;
56667;SDS011;42542;48.360;10.958;2023-05-29T06:09:49;11.13;;;4.80;;
56667;SDS011;42542;48.360;10.958;2023-05-29T06:12:52;12.93;;;4.65;;
56667;SDS011;42542;48.360;10.958;2023-05-29T06:15:58;10.98;;;4.60;;
56667;SDS011;42542;48.360;10.958;2023-05-29T06:19:01;11.98;;;5.03;;
56667;SDS011;42542;48.360;10.958;2023-05-29T06:22:07;13.65;;;4.75;;
56667;SDS011;42542;48.360;10.958;2023-05-29T06:25:11;12.10;;;5.00;;
56667;SDS011;42542;48.360;10.958;2023-05-29T06:28:13;12.68;;;5.20;;
56667;SDS011;42542;48.360;10.958;2023-05-29T06:31:15;10.82;;;4.55;;
56667;SDS011;42542;48.360;10.958;2023-05-29T06:34:18;13.85;;;5.10;;
56667;SDS011;42542;48.360;10.958;2023-05-29T06:37:21;10.38;;;4.57;;
56667;SDS011;42542;48.360;10.958;2023-05-29T06:40:24;11.77;;;4.67;;
56667;SDS011;42542;48.360;10.958;2023-05-29T06:43:27;10.73;;;4.60;;
56667;SDS011;42542;48.360;10.958;2023-05-29T06:46:31;11.95;;;4.45;;
56667;SDS011;42542;48.360;10.958;2023-05-29T06:49:35;9.95;;;4.15;;
56667;SDS011;42542;48.360;10.958;2023-05-29T06:52:38;11.00;;;4.65;;
56667;SDS011;42542;48.360;10.958;2023-05-29T06:55:58;10.73;;;4.47;;
56667;SDS011;42542;48.360;10.958;2023-05-29T06:59:01;11.45;;;4.28;;
56667;SDS011;42542;48.360;10.958;2023-05-29T07:02:04;10.60;;;4.07;;
56667;SDS011;42542;48.360;10.958;2023-05-29T07:05:07;11.48;;;4.25;;
56667;SDS011;42542;48.360;10.958;2023-05-29T07:08:11;9.60;;;4.20;;
56667;SDS011;42542;48.360;10.958;2023-05-29T07:11:13;10.63;;;4.20;;
56667;SDS011;42542;48.360;10.958;2023-05-29T07:14:15;11.13;;;4.30;;
56667;SDS011;42542;48.360;10.958;2023-05-29T07:17:19;10.73;;;4.20;;
56667;SDS011;42542;48.360;10.958;2023-05-29T07:20:26;10.60;;;4.30;;
56667;SDS011;42542;48.360;10.958;2023-05-29T07:23:28;10.40;;;3.80;;
56667;SDS011;42542;48.360;10.958;2023-05-29T07:26:31;9.97;;;4.20;;
56667;SDS011;42542;48.360;10.958;2023-05-29T07:29:33;11.30;;;4.50;;
56667;SDS011;42542;48.360;10.958;2023-05-29T07:32:35;11.35;;;4.50;;
56667;SDS011;42542;48.360;10.958;2023-05-29T07:35:38;10.55;;;4.13;;
56667;SDS011;42542;48.360;10.958;2023-05-29T07:38:40;10.18;;;4.35;;
56667;SDS011;42542;48.360;10.958;2023-05-29T07:41:42;11.13;;;4.30;;
56667;SDS011;42542;48.360;10.958;2023-05-29T07:44:45;10.45;;;4.50;;
56667;SDS011;42542;48.360;10.958;2023-05-29T07:47:48;11.52;;;4.78;;
56667;SDS011;42542;48.360;10.958;2023-05-29T07:50:51;9.27;;;4.18;;
56667;SDS011;42542;48.360;10.958;2023-05-29T07:53:55;10.40;;;4.22;;
56667;SDS011;42542;48.360;10.958;2023-05-29T07:56:56;12.23;;;4.40;;
56667;SDS011;42542;48.360;10.958;2023-05-29T07:59:59;11.98;;;4.50;;
56667;SDS011;42542;48.360;10.958;2023-05-29T08:03:03;10.90;;;4.38;;
56667;SDS011;42542;48.360;10.958;2023-05-29T08:06:25;12.35;;;4.80;;
56667;SDS011;42542;48.360;10.958;2023-05-29T08:09:32;10.20;;;4.65;;
56667;SDS011;42542;48.360;10.958;2023-05-29T08:12:34;10.03;;;4.10;;
56667;SDS011;42542;48.360;10.958;2023-05-29T08:15:36;10.60;;;4.70;;
56667;SDS011;42542;48.360;10.958;2023-05-29T08:18:40;10.63;;;4.40;;
56667;SDS011;42542;48.360;10.958;2023-05-29T08:21:41;10.50;;;4.50;;
56667;SDS011;42542;48.360;10.958;2023-05-29T08:24:44;11.15;;;4.15;;
56667;SDS011;42542;48.360;10.958;2023-05-29T08:27:45;9.57;;;4.13;;
56667;SDS011;42542;48.360;10.958;2023-05-29T08:30:48;10.95;;;4.22;;
56667;SDS011;42542;48.360;10.958;2023-05-29T08:33:49;10.63;;;4.20;;
56667;SDS011;42542;48.360;10.958;2023-05-29T08:36:52;10.52;;;4.13;;
56667;SDS011;42542;48.360;10.958;2023-05-29T08:39:56;11.20;;;4.20;;
56667;SDS011;42542;48.360;10.958;2023-05-29T08:43:10;9.67;;;3.90;;
56667;SDS011;42542;48.360;10.958;2023-05-29T08:46:15;11.25;;;4.05;;
56667;SDS011;42542;48.360;10.958;2023-05-29T08:49:19;10.23;;;3.80;;
56667;SDS011;42542;48.360;10.958;2023-05-29T08:52:23;9.85;;;4.00;;
56667;SDS011;42542;48.360;10.958;2023-05-29T08:55:29;9.60;;;3.72;;
56667;SDS011;42542;48.360;10.958;2023-05-29T08:58:31;10.93;;;4.07;;
56667;SDS011;42542;48.360;10.958;2023-05-29T09:01:35;10.65;;;3.92;;
56667;SDS011;42542;48.360;10.958;2023-05-29T09:04:41;9.02;;;4.05;;
56667;SDS011;42542;48.360;10.958;2023-05-29T09:07:44;12.02;;;4.00;;
56667;SDS011;42542;48.360;10.958;2023-05-29T09:10:46;11.05;;;4.18;;
56667;SDS011;42542;48.360;10.958;2023-05-29T09:13:50;9.47;;;3.70;;
56667;SDS011;42542;48.360;10.958;2023-05-29T09:16:53;9.40;;;4.10;;
56667;SDS011;42542;48.360;10.958;2023-05-29T09:19:56;9.18;;;4.10;;
56667;SDS011;42542;48.360;10.958;2023-05-29T09:22:58;10.05;;;4.07;;
56667;SDS011;42542;48.360;10.958;2023-05-29T09:26:03;10.60;;;4.25;;
56667;SDS011;42542;48.360;10.958;2023-05-29T09:29:44;9.33;;;3.90;;
56667;SDS011;42542;48.360;10.958;2023-05-29T09:32:52;10.77;;;4.22;;
56667;SDS011;42542;48.360;10.958;2023-05-29T09:35:55;10.48;;;3.85;;
56667;SDS011;42542;48.360;10.958;2023-05-29T09:39:01;12.68;;;3.75;;
56667;SDS011;42542;48.360;10.958;2023-05-29T09:42:07;8.55;;;3.90;;
56667;SDS011;42542;48.360;10.958;2023-05-29T09:45:11;10.30;;;3.90;;
56667;SDS011;42542;48.360;10.958;2023-05-29T09:48:14;8.82;;;3.60;;
56667;SDS011;42542;48.360;10.958;2023-05-29T09:51:21;9.90;;;3.85;;
56667;SDS011;42542;48.360;10.958;2023-05-29T09:54:27;11.93;;;4.00;;
56667;SDS011;42542;48.360;10.958;2023-05-29T09:57:31;10.00;;;3.90;;
56667;SDS011;42542;48.360;10.958;2023-05-29T10:00:33;8.80;;;3.80;;
56667;SDS011;42542;48.360;10.958;2023-05-29T10:03:35;7.82;;;3.55;;
56667;SDS011;42542;48.360;10.958;2023-05-29T10:06:38;10.90;;;3.70;;
56667;SDS011;42542;48.360;10.958;2023-05-29T10:09:53;9.50;;;3.90;;
56667;SDS011;42542;48.360;10.958;2023-05-29T10:13:06;10.18;;;4.30;;
56667;SDS011;42542;48.360;10.958;2023-05-29T10:16:10;9.43;;;4.00;;
56667;SDS011;42542;48.360;10.958;2023-05-29T10:19:18;11.02;;;3.78;;
56667;SDS011;42542;48.360;10.958;2023-05-29T10:22:25;8.70;;;3.80;;
56667;SDS011;42542;48.360;10.958;2023-05-29T10:25:29;9.30;;;3.83;;
56667;SDS011;42542;48.360;10.958;2023-05-29T10:28:34;10.43;;;4.07;;
56667;SDS011;42542;48.360;10.958;2023-05-29T10:35:00;10.00;;;3.88;;
56667;SDS011;42542;48.360;10.958;2023-05-29T10:38:15;9.13;;;3.83;;
56667;SDS011;42542;48.360;10.958;2023-05-29T10:47:33;8.17;;;3.50;;
56667;SDS011;42542;48.360;10.958;2023-05-29T10:53:42;8.20;;;3.70;;
56667;SDS011;42542;48.360;10.958;2023-05-29T10:56:44;8.93;;;3.80;;
56667;SDS011;42542;48.360;10.958;2023-05-29T11:00:02;11.00;;;4.38;;
56667;SDS011;42542;48.360;10.958;2023-05-29T11:03:07;10.13;;;3.87;;
56667;SDS011;42542;48.360;10.958;2023-05-29T11:06:18;10.45;;;4.10;;
56667;SDS011;42542;48.360;10.958;2023-05-29T11:09:28;8.60;;;3.70;;
56667;SDS011;42542;48.360;10.958;2023-05-29T11:12:32;9.43;;;3.90;;
56667;SDS011;42542;48.360;10.958;2023-05-29T11:15:40;9.40;;;3.90;;
56667;SDS011;42542;48.360;10.958;2023-05-29T11:18:46;9.77;;;3.63;;
56667;SDS011;42542;48.360;10.958;2023-05-29T11:22:06;10.32;;;3.95;;
56667;SDS011;42542;48.360;10.958;2023-05-29T11:25:16;10.07;;;3.80;;
56667;SDS011;42542;48.360;10.958;2023-05-29T11:28:18;8.70;;;3.95;;
56667;SDS011;42542;48.360;10.958;2023-05-29T11:31:22;10.15;;;3.97;;
56667;SDS011;42542;48.360;10.958;2023-05-29T11:34:25;8.73;;;4.07;;
56667;SDS011;42542;48.360;10.958;2023-05-29T11:37:30;9.38;;;3.90;;
56667;SDS011;42542;48.360;10.958;2023-05-29T11:40:36;9.48;;;3.85;;
56667;SDS011;42542;48.360;10.958;2023-05-29T11:43:40;9.30;;;3.78;;
56667;SDS011;42542;48.360;10.958;2023-05-29T11:46:41;10.13;;;3.97;;
56667;SDS011;42542;48.360;10.958;2023-05-29T11:49:43;10.03;;;3.77;;
56667;SDS011;42542;48.360;10.958;2023-05-29T11:52:46;8.93;;;3.80;;
56667;SDS011;42542;48.360;10.958;2023-05-29T11:55:48;9.98;;;3.78;;
56667;SDS011;42542;48.360;10.958;2023-05-29T11:58:50;10.02;;;3.70;;
56667;SDS011;42542;48.360;10.958;2023-05-29T12:01:57;14.02;;;3.90;;
56667;SDS011;42542;48.360;10.958;2023-05-29T12:05:05;8.63;;;3.87;;
56667;SDS011;42542;48.360;10.958;2023-05-29T12:08:12;10.75;;;4.25;;
56667;SDS011;42542;48.360;10.958;2023-05-29T12:11:13;9.23;;;4.03;;
56667;SDS011;42542;48.360;10.958;2023-05-29T12:14:16;8.55;;;3.60;;
56667;SDS011;42542;48.360;10.958;2023-05-29T12:17:19;8.85;;;3.78;;
56667;SDS011;42542;48.360;10.958;2023-05-29T12:20:23;8.80;;;3.80;;
56667;SDS011;42542;48.360;10.958;2023-05-29T12:23:28;9.30;;;3.80;;
56667;SDS011;42542;48.360;10.958;2023-05-29T12:26:31;9.00;;;3.85;;
56667;SDS011;42542;48.360;10.958;2023-05-29T12:29:34;9.60;;;3.90;;
56667;SDS011;42542;48.360;10.958;2023-05-29T12:32:36;8.73;;;3.55;;
56667;SDS011;42542;48.360;10.958;2023-05-29T12:35:39;9.90;;;3.77;;
56667;SDS011;42542;48.360;10.958;2023-05-29T12:38:51;8.25;;;3.67;;
56667;SDS011;42542;48.360;10.958;2023-05-29T12:41:53;8.55;;;3.80;;
56667;SDS011;42542;48.360;10.958;2023-05-29T12:44:56;7.68;;;3.40;;
56667;SDS011;42542;48.360;10.958;2023-05-29T12:48:02;9.65;;;3.72;;
56667;SDS011;42542;48.360;10.958;2023-05-29T12:51:06;8.40;;;3.60;;
56667;SDS011;42542;48.360;10.958;2023-05-29T12:54:13;8.73;;;3.80;;
56667;SDS011;42542;48.360;10.958;2023-05-29T12:57:16;7.80;;;3.70;;
56667;SDS011;42542;48.360;10.958;2023-05-29T13:00:18;9.02;;;4.10;;
56667;SDS011;42542;48.360;10.958;2023-05-29T13:03:22;8.75;;;3.90;;
56667;SDS011;42542;48.360;10.958;2023-05-29T13:06:27;8.80;;;3.47;;
56667;SDS011;42542;48.360;10.958;2023-05-29T13:09:30;9.32;;;3.85;;
56667;SDS011;42542;48.360;10.958;2023-05-29T13:12:32;8.52;;;3.80;;
56667;SDS011;42542;48.360;10.958;2023-05-29T13:15:34;8.20;;;3.63;;
56667;SDS011;42542;48.360;10.958;2023-05-29T13:18:36;8.73;;;3.90;;
56667;SDS011;42542;48.360;10.958;2023-05-29T13:21:37;8.87;;;3.97;;
56667;SDS011;42542;48.360;10.958;2023-05-29T13:24:41;9.30;;;3.65;;
56667;SDS011;42542;48.360;10.958;2023-05-29T13:27:45;10.07;;;3.60;;
56667;SDS011;42542;48.360;10.958;2023-05-29T13:30:48;9.30;;;4.00;;
56667;SDS011;42542;48.360;10.958;2023-05-29T13:33:49;8.07;;;3.92;;
56667;SDS011;42542;48.360;10.958;2023-05-29T13:36:54;8.77;;;3.70;;
56667;SDS011;42542;48.360;10.958;2023-05-29T13:39:57;8.32;;;3.50;;
56667;SDS011;42542;48.360;10.958;2023-05-29T13:42:59;9.98;;;3.70;;
56667;SDS011;42542;48.360;10.958;2023-05-29T13:46:01;9.52;;;3.85;;
56667;SDS011;42542;48.360;10.958;2023-05-29T13:49:04;8.50;;;3.85;;
56667;SDS011;42542;48.360;10.958;2023-05-29T13:52:06;7.77;;;3.57;;
56667;SDS011;42542;48.360;10.958;2023-05-29T13:55:08;7.60;;;3.53;;
56667;SDS011;42542;48.360;10.958;2023-05-29T13:58:11;8.48;;;3.58;;
56667;SDS011;42542;48.360;10.958;2023-05-29T14:01:13;7.35;;;3.40;;
56667;SDS011;42542;48.360;10.958;2023-05-29T14:04:16;9.55;;;3.67;;
56667;SDS011;42542;48.360;10.958;2023-05-29T14:07:18;8.33;;;3.40;;
56667;SDS011;42542;48.360;10.958;2023-05-29T14:10:21;9.25;;;3.80;;
56667;SDS011;42542;48.360;10.958;2023-05-29T14:13:22;8.18;;;3.28;;
56667;SDS011;42542;48.360;10.958;2023-05-29T14:16:24;8.23;;;3.30;;
56667;SDS011;42542;48.360;10.958;2023-05-29T14:19:26;8.27;;;3.53;;
56667;SDS011;42542;48.360;10.958;2023-05-29T14:22:28;8.10;;;3.80;;
56667;SDS011;42542;48.360;10.958;2023-05-29T14:25:31;7.22;;;3.20;;
56667;SDS011;42542;48.360;10.958;2023-05-29T14:28:33;9.93;;;3.50;;
56667;SDS011;42542;48.360;10.958;2023-05-29T14:31:34;7.28;;;3.20;;
56667;SDS011;42542;48.360;10.958;2023-05-29T14:34:37;7.40;;;3.30;;
56667;SDS011;42542;48.360;10.958;2023-05-29T14:37:39;8.43;;;3.40;;
56667;SDS011;42542;48.360;10.958;2023-05-29T14:40:41;7.35;;;3.42;;
56667;SDS011;42542;48.360;10.958;2023-05-29T14:43:44;6.97;;;3.38;;
56667;SDS011;42542;48.360;10.958;2023-05-29T14:46:46;6.65;;;3.30;;
56667;SDS011;42542;48.360;10.958;2023-05-29T14:49:48;8.02;;;3.30;;
56667;SDS011;42542;48.360;10.958;2023-05-29T14:52:51;7.70;;;3.53;;
56667;SDS011;42542;48.360;10.958;2023-05-29T14:55:52;7.05;;;3.28;;
56667;SDS011;42542;48.360;10.958;2023-05-29T14:58:56;6.55;;;2.97;;
56667;SDS011;42542;48.360;10.958;2023-05-29T15:01:57;6.72;;;3.30;;
56667;SDS011;42542;48.360;10.958;2023-05-29T15:05:01;7.03;;;3.17;;
56667;SDS011;42542;48.360;10.958;2023-05-29T15:08:03;7.53;;;3.43;;
56667;SDS011;42542;48.360;10.958;2023-05-29T15:11:05;8.27;;;3.15;;
56667;SDS011;42542;48.360;10.958;2023-05-29T15:14:07;8.50;;;3.40;;
56667;SDS011;42542;48.360;10.958;2023-05-29T15:17:09;8.23;;;3.08;;
56667;SDS011;42542;48.360;10.958;2023-05-29T15:20:12;8.27;;;3.30;;
56667;SDS011;42542;48.360;10.958;2023-05-29T15:23:15;6.83;;;3.00;;
56667;SDS011;42542;48.360;10.958;2023-05-29T15:26:17;9.32;;;3.30;;
56667;SDS011;42542;48.360;10.958;2023-05-29T15:29:19;7.30;;;3.33;;
56667;SDS011;42542;48.360;10.958;2023-05-29T15:32:22;8.13;;;3.38;;
56667;SDS011;42542;48.360;10.958;2023-05-29T15:35:23;7.45;;;3.20;;
56667;SDS011;42542;48.360;10.958;2023-05-29T15:38:26;7.57;;;2.97;;
56667;SDS011;42542;48.360;10.958;2023-05-29T15:41:28;8.77;;;3.00;;
56667;SDS011;42542;48.360;10.958;2023-05-29T15:44:30;9.23;;;3.75;;
56667;SDS011;42542;48.360;10.958;2023-05-29T15:47:32;11.38;;;5.80;;
56667;SDS011;42542;48.360;10.958;2023-05-29T15:50:34;14.38;;;4.50;;
56667;SDS011;42542;48.360;10.958;2023-05-29T15:53:37;15.47;;;5.67;;
56667;SDS011;42542;48.360;10.958;2023-05-29T15:56:39;10.18;;;4.10;;
56667;SDS011;42542;48.360;10.958;2023-05-29T15:59:41;6.40;;;3.10;;
56667;SDS011;42542;48.360;10.958;2023-05-29T16:02:43;7.22;;;3.05;;
56667;SDS011;42542;48.360;10.958;2023-05-29T16:05:46;7.65;;;3.20;;
56667;SDS011;42542;48.360;10.958;2023-05-29T16:08:51;7.30;;;3.20;;
56667;SDS011;42542;48.360;10.958;2023-05-29T16:11:54;6.50;;;3.00;;
56667;SDS011;42542;48.360;10.958;2023-05-29T16:14:57;6.88;;;3.03;;
56667;SDS011;42542;48.360;10.958;2023-05-29T16:17:59;8.75;;;3.10;;
56667;SDS011;42542;48.360;10.958;2023-05-29T16:21:01;6.38;;;3.10;;
56667;SDS011;42542;48.360;10.958;2023-05-29T16:24:04;8.13;;;3.27;;
56667;SDS011;42542;48.360;10.958;2023-05-29T16:27:06;7.28;;;2.92;;
56667;SDS011;42542;48.360;10.958;2023-05-29T16:30:11;9.52;;;3.10;;
56667;SDS011;42542;48.360;10.958;2023-05-29T16:33:13;7.53;;;3.45;;
56667;SDS011;42542;48.360;10.958;2023-05-29T16:36:17;7.85;;;3.05;;
56667;SDS011;42542;48.360;10.958;2023-05-29T16:39:19;7.00;;;3.17;;
56667;SDS011;42542;48.360;10.958;2023-05-29T16:42:24;8.30;;;3.20;;
56667;SDS011;42542;48.360;10.958;2023-05-29T16:45:26;6.68;;;2.95;;
56667;SDS011;42542;48.360;10.958;2023-05-29T16:48:28;6.70;;;2.90;;
56667;SDS011;42542;48.360;10.958;2023-05-29T16:51:31;7.20;;;3.03;;
56667;SDS011;42542;48.360;10.958;2023-05-29T16:54:34;6.00;;;3.00;;
56667;SDS011;42542;48.360;10.958;2023-05-29T16:57:40;6.40;;;2.80;;
56667;SDS011;42542;48.360;10.958;2023-05-29T17:00:44;8.65;;;3.17;;
56667;SDS011;42542;48.360;10.958;2023-05-29T17:03:46;6.28;;;2.80;;
56667;SDS011;42542;48.360;10.958;2023-05-29T17:06:48;7.32;;;3.20;;
56667;SDS011;42542;48.360;10.958;2023-05-29T17:09:50;6.40;;;2.97;;
56667;SDS011;42542;48.360;10.958;2023-05-29T17:12:52;7.03;;;3.10;;
56667;SDS011;42542;48.360;10.958;2023-05-29T17:15:54;7.20;;;2.97;;
56667;SDS011;42542;48.360;10.958;2023-05-29T17:18:57;8.18;;;2.90;;
56667;SDS011;42542;48.360;10.958;2023-05-29T17:21:59;7.45;;;3.03;;
56667;SDS011;42542;48.360;10.958;2023-05-29T17:25:02;6.77;;;2.80;;
56667;SDS011;42542;48.360;10.958;2023-05-29T17:28:04;7.93;;;2.88;;
56667;SDS011;42542;48.360;10.958;2023-05-29T17:31:10;6.68;;;3.00;;
56667;SDS011;42542;48.360;10.958;2023-05-29T17:34:13;8.07;;;3.15;;
56667;SDS011;42542;48.360;10.958;2023-05-29T17:37:15;7.30;;;2.90;;
56667;SDS011;42542;48.360;10.958;2023-05-29T17:40:17;7.23;;;3.00;;
56667;SDS011;42542;48.360;10.958;2023-05-29T17:43:19;6.88;;;2.97;;
56667;SDS011;42542;48.360;10.958;2023-05-29T17:46:22;10.05;;;3.63;;
56667;SDS011;42542;48.360;10.958;2023-05-29T17:49:24;8.82;;;3.50;;
56667;SDS011;42542;48.360;10.958;2023-05-29T17:52:26;10.15;;;2.88;;
56667;SDS011;42542;48.360;10.958;2023-05-29T17:55:29;10.37;;;2.80;;
56667;SDS011;42542;48.360;10.958;2023-05-29T17:58:32;8.25;;;3.05;;
56667;SDS011;42542;48.360;10.958;2023-05-29T18:01:35;11.90;;;5.88;;
56667;SDS011;42542;48.360;10.958;2023-05-29T18:04:37;13.52;;;8.35;;
56667;SDS011;42542;48.360;10.958;2023-05-29T18:07:40;14.90;;;8.65;;
56667;SDS011;42542;48.360;10.958;2023-05-29T18:10:42;10.27;;;4.70;;
56667;SDS011;42542;48.360;10.958;2023-05-29T18:13:46;8.85;;;3.40;;
56667;SDS011;42542;48.360;10.958;2023-05-29T18:16:48;7.70;;;3.17;;
56667;SDS011;42542;48.360;10.958;2023-05-29T18:19:52;6.82;;;3.10;;
56667;SDS011;42542;48.360;10.958;2023-05-29T18:22:57;7.47;;;3.50;;